createdAt,value
2018-11-05T00:00:51.389Z,7.37
2018-11-05T00:03:20.143Z,8.23
2018-11-05T00:05:48.671Z,7.40
2018-11-05T00:08:17.101Z,7.60
2018-11-05T00:10:45.490Z,10.40
2018-11-05T00:13:13.989Z,8.30
2018-11-05T00:15:42.708Z,6.07
2018-11-05T00:18:11.245Z,9.03
2018-11-05T00:20:39.630Z,8.80
2018-11-05T00:23:08.274Z,9.60
2018-11-05T00:25:36.649Z,9.00
2018-11-05T00:28:05.652Z,6.77
2018-11-05T00:30:34.073Z,7.57
2018-11-05T00:33:02.852Z,8.87
2018-11-05T00:35:31.311Z,9.10
2018-11-05T00:37:59.768Z,9.77
2018-11-05T00:40:28.443Z,9.27
2018-11-05T00:42:56.837Z,11.47
2018-11-05T00:45:25.527Z,10.60
2018-11-05T00:47:53.874Z,10.30
2018-11-05T00:50:22.561Z,9.60
2018-11-05T00:52:51.368Z,9.20
2018-11-05T00:55:19.957Z,6.83
2018-11-05T00:57:48.355Z,8.70
2018-11-05T01:00:17.365Z,7.70
2018-11-05T01:02:45.790Z,7.97
2018-11-05T01:05:15.499Z,6.37
2018-11-05T01:07:44.884Z,6.63
2018-11-05T01:10:14.489Z,7.43
2018-11-05T01:12:43.190Z,7.37
2018-11-05T01:15:15.075Z,6.70
2018-11-05T01:17:44.150Z,5.40
2018-11-05T01:20:14.353Z,5.77
2018-11-05T01:22:43.049Z,5.17
2018-11-05T01:25:11.540Z,6.90
2018-11-05T01:27:40.344Z,6.47
2018-11-05T01:30:10.484Z,7.00
2018-11-05T01:32:38.865Z,5.73
2018-11-05T01:35:08.545Z,5.77
2018-11-05T01:37:37.196Z,7.23
2018-11-05T01:40:07.548Z,5.90
2018-11-05T01:42:36.448Z,5.37
2018-11-05T01:45:05.540Z,5.70
2018-11-05T01:47:34.145Z,3.67
2018-11-05T01:50:02.711Z,4.00
2018-11-05T01:52:31.131Z,4.13
2018-11-05T01:54:59.671Z,3.50
2018-11-05T01:57:28.403Z,3.90
2018-11-05T01:59:56.832Z,5.40
2018-11-05T02:02:25.376Z,4.10
2018-11-05T02:04:53.780Z,4.10
2018-11-05T02:07:22.707Z,4.80
2018-11-05T02:09:51.182Z,4.33
2018-11-05T02:12:19.588Z,4.00
2018-11-05T02:14:48.220Z,5.20
2018-11-05T02:17:16.734Z,3.57
2018-11-05T02:19:45.382Z,5.00
2018-11-05T02:22:14.037Z,4.70
2018-11-05T02:24:43.398Z,4.07
2018-11-05T02:27:11.842Z,4.87
2018-11-05T02:29:40.479Z,4.80
2018-11-05T02:32:09.574Z,4.70
2018-11-05T02:34:38.088Z,4.70
2018-11-05T02:37:06.759Z,4.30
2018-11-05T02:39:35.279Z,5.87
2018-11-05T02:42:04.066Z,4.40
2018-11-05T02:44:32.724Z,5.10
2018-11-05T02:47:01.128Z,4.53
2018-11-05T02:49:29.577Z,4.50
2018-11-05T02:51:58.697Z,4.30
2018-11-05T02:54:27.250Z,5.13
2018-11-05T02:56:55.837Z,4.50
2018-11-05T02:59:24.877Z,4.03
2018-11-05T03:01:53.535Z,4.10
2018-11-05T03:04:22.254Z,3.80
2018-11-05T03:06:50.845Z,3.63
2018-11-05T03:09:19.384Z,4.47
2018-11-05T03:11:47.819Z,3.80
2018-11-05T03:14:16.258Z,4.77
2018-11-05T03:16:44.683Z,3.33
2018-11-05T03:19:13.085Z,4.40
2018-11-05T03:21:41.960Z,4.50
2018-11-05T03:24:10.372Z,3.73
2018-11-05T03:26:38.808Z,4.77
2018-11-05T03:29:07.505Z,5.30
2018-11-05T03:31:35.892Z,4.27
2018-11-05T03:34:04.413Z,5.27
2018-11-05T03:36:32.824Z,4.10
2018-11-05T03:39:01.626Z,4.13
2018-11-05T03:41:30.109Z,4.20
2018-11-05T03:43:58.710Z,5.07
2018-11-05T03:46:27.306Z,5.30
2018-11-05T03:48:55.686Z,4.97
2018-11-05T03:51:24.356Z,5.17
2018-11-05T03:53:52.812Z,5.50
2018-11-05T03:56:21.350Z,5.10
2018-11-05T03:58:49.793Z,6.00
2018-11-05T04:01:18.306Z,5.20
2018-11-05T04:03:46.803Z,7.00
2018-11-05T04:06:15.535Z,5.80
2018-11-05T04:08:43.995Z,5.70
2018-11-05T04:11:12.561Z,5.13
2018-11-05T04:13:41.280Z,5.47
2018-11-05T04:16:09.652Z,6.60
2018-11-05T04:18:38.025Z,5.80
2018-11-05T04:21:06.852Z,6.30
2018-11-05T04:23:35.467Z,5.57
2018-11-05T04:26:03.937Z,5.40
2018-11-05T04:28:32.364Z,4.70
2018-11-05T04:31:00.764Z,5.53
2018-11-05T04:33:29.228Z,5.30
2018-11-05T04:35:58.146Z,5.13
2018-11-05T04:38:26.634Z,5.37
2018-11-05T04:40:55.334Z,4.97
2018-11-05T04:43:24.021Z,5.63
2018-11-05T04:45:52.417Z,6.07
2018-11-05T04:48:21.860Z,5.20
2018-11-05T04:50:50.375Z,5.67
2018-11-05T04:53:19.059Z,5.67
2018-11-05T04:55:47.487Z,4.73
2018-11-05T04:58:16.168Z,5.53
2018-11-05T05:00:44.759Z,5.40
2018-11-05T05:03:13.421Z,4.47
2018-11-05T05:05:42.032Z,4.87
2018-11-05T05:08:10.414Z,4.40
2018-11-05T05:10:38.817Z,10.47
2018-11-05T05:13:07.459Z,6.27
2018-11-05T05:15:35.863Z,4.73
2018-11-05T05:18:04.345Z,6.10
2018-11-05T05:20:33.681Z,14.43
2018-11-05T05:23:02.228Z,16.50
2018-11-05T05:25:30.809Z,12.73
2018-11-05T05:27:59.218Z,8.57
2018-11-05T05:30:27.926Z,8.70
2018-11-05T05:32:56.389Z,6.10
2018-11-05T05:35:24.792Z,7.40
2018-11-05T05:37:53.330Z,6.73
2018-11-05T05:40:22.002Z,6.63
2018-11-05T05:42:51.692Z,8.20
2018-11-05T05:45:20.074Z,7.17
2018-11-05T05:47:48.436Z,8.50
2018-11-05T05:50:18.070Z,8.33
2018-11-05T05:52:48.005Z,8.93
2018-11-05T05:55:16.783Z,9.37
2018-11-05T05:57:45.865Z,8.50
2018-11-05T06:00:16.395Z,8.40
2018-11-05T06:02:45.096Z,8.13
2018-11-05T06:05:14.613Z,7.40
2018-11-05T06:07:44.047Z,8.10
2018-11-05T06:10:13.725Z,9.90
2018-11-05T06:12:42.715Z,8.80
2018-11-05T06:15:13.235Z,9.07
2018-11-05T06:17:41.671Z,8.90
2018-11-05T06:20:14.593Z,8.40
2018-11-05T06:22:44.110Z,8.50
2018-11-05T06:25:12.653Z,9.07
2018-11-05T06:27:41.111Z,12.40
2018-11-05T06:30:12.075Z,15.83
2018-11-05T06:32:40.843Z,13.97
2018-11-05T06:35:10.255Z,10.80
2018-11-05T06:37:39.234Z,10.20
2018-11-05T06:40:09.721Z,11.23
2018-11-05T06:42:38.195Z,10.27
2018-11-05T06:45:08.904Z,8.60
2018-11-05T06:47:37.960Z,6.20
2018-11-05T06:50:09.221Z,5.93
2018-11-05T06:52:37.861Z,5.90
2018-11-05T06:55:07.366Z,8.80
2018-11-05T06:57:35.945Z,19.50
2018-11-05T07:00:05.929Z,13.97
2018-11-05T07:02:34.631Z,22.43
2018-11-05T07:05:04.149Z,11.57
2018-11-05T07:07:32.867Z,6.33
2018-11-05T07:10:01.401Z,5.60
2018-11-05T07:12:29.853Z,4.50
2018-11-05T07:14:58.350Z,5.87
2018-11-05T07:17:26.811Z,5.50
2018-11-05T07:19:55.487Z,5.03
2018-11-05T07:22:23.921Z,5.50
2018-11-05T07:24:52.836Z,5.00
2018-11-05T07:27:21.559Z,5.40
2018-11-05T07:29:49.941Z,5.67
2018-11-05T07:32:18.367Z,6.03
2018-11-05T07:34:46.891Z,5.80
2018-11-05T07:37:15.423Z,5.30
2018-11-05T07:39:44.253Z,12.53
2018-11-05T07:42:13.361Z,9.60
2018-11-05T07:44:41.741Z,8.87
2018-11-05T07:47:10.280Z,11.40
2018-11-05T07:49:39.202Z,8.60
2018-11-05T07:52:07.705Z,8.87
2018-11-05T07:54:36.104Z,5.40
2018-11-05T07:57:04.541Z,9.30
2018-11-05T07:59:33.017Z,6.00
2018-11-05T08:02:01.947Z,5.83
2018-11-05T08:04:30.885Z,5.70
2018-11-05T08:07:00.146Z,5.73
2018-11-05T08:09:29.641Z,5.17
2018-11-05T08:11:58.229Z,5.57
2018-11-05T08:14:26.776Z,5.80
2018-11-05T08:16:55.189Z,5.33
2018-11-05T08:19:23.765Z,5.93
2018-11-05T08:21:52.580Z,5.93
2018-11-05T08:24:21.095Z,4.83
2018-11-05T08:26:49.931Z,7.80
2018-11-05T08:29:18.821Z,5.73
2018-11-05T08:31:47.207Z,4.80
2018-11-05T08:34:15.736Z,39.97
2018-11-05T08:36:44.167Z,8.37
2018-11-05T08:39:13.243Z,9.37
2018-11-05T08:41:41.783Z,6.77
2018-11-05T08:44:11.114Z,6.10
2018-11-05T08:46:40.147Z,5.90
2018-11-05T08:49:08.772Z,6.30
2018-11-05T08:51:37.756Z,5.73
2018-11-05T08:54:05.935Z,6.00
2018-11-05T08:56:34.498Z,10.20
2018-11-05T08:59:03.457Z,6.30
2018-11-05T09:01:33.576Z,5.57
2018-11-05T09:04:02.652Z,4.83
2018-11-05T09:06:31.064Z,5.10
2018-11-05T09:08:59.520Z,6.53
2018-11-05T09:11:29.632Z,8.30
2018-11-05T09:13:57.897Z,5.50
2018-11-05T09:16:26.453Z,5.00
2018-11-05T09:18:55.165Z,5.30
2018-11-05T09:21:23.620Z,4.97
2018-11-05T09:23:52.020Z,5.57
2018-11-05T09:26:20.465Z,4.40
2018-11-05T09:28:49.533Z,4.40
2018-11-05T09:31:18.076Z,4.20
2018-11-05T09:33:46.522Z,4.17
2018-11-05T09:36:14.921Z,3.27
2018-11-05T09:38:43.314Z,4.23
2018-11-05T09:41:11.963Z,3.70
2018-11-05T09:43:40.362Z,3.30
2018-11-05T09:46:08.799Z,10.47
2018-11-05T09:48:37.413Z,4.77
2018-11-05T09:51:06.064Z,5.53
2018-11-05T09:53:34.861Z,4.80
2018-11-05T09:56:03.323Z,6.23
2018-11-05T09:58:31.953Z,3.70
2018-11-05T10:03:45.792Z,4.07
2018-11-05T10:06:14.357Z,3.37
2018-11-05T10:08:42.760Z,2.73
2018-11-05T10:11:11.285Z,4.67
2018-11-05T10:13:40.224Z,3.47
2018-11-05T10:16:09.126Z,2.93
2018-11-05T10:18:37.640Z,2.90
2018-11-05T10:21:06.156Z,2.90
2018-11-05T10:23:34.566Z,3.13
2018-11-05T10:26:03.614Z,3.20
2018-11-05T10:28:32.032Z,3.80
2018-11-05T10:31:00.625Z,3.07
2018-11-05T10:33:29.324Z,2.70
2018-11-05T10:35:58.449Z,2.97
2018-11-05T10:38:27.281Z,2.97
2018-11-05T10:40:55.859Z,3.00
2018-11-05T10:43:24.397Z,3.20
2018-11-05T10:45:53.122Z,3.03
2018-11-05T10:48:21.837Z,3.43
2018-11-05T10:50:50.388Z,2.60
2018-11-05T10:53:18.851Z,3.70
2018-11-05T10:55:47.644Z,2.60
2018-11-05T10:58:16.200Z,2.40
2018-11-05T11:00:49.878Z,2.57
2018-11-05T11:03:20.433Z,2.77
2018-11-05T11:05:48.876Z,2.30
2018-11-05T11:08:17.496Z,2.60
2018-11-05T11:10:45.943Z,2.47
2018-11-05T11:13:14.418Z,2.67
2018-11-05T11:15:43.231Z,2.17
2018-11-05T11:18:11.669Z,2.63
2018-11-05T11:20:40.087Z,2.87
2018-11-05T11:23:08.523Z,2.03
2018-11-05T11:25:37.025Z,2.20
2018-11-05T11:28:06.111Z,2.50
2018-11-05T11:30:34.337Z,2.70
2018-11-05T11:33:02.797Z,2.73
2018-11-05T11:35:31.169Z,2.37
2018-11-05T11:37:59.611Z,2.37
2018-11-05T11:40:28.298Z,2.33
2018-11-05T11:42:56.694Z,2.50
2018-11-05T11:45:25.389Z,2.07
2018-11-05T11:47:53.831Z,3.03
2018-11-05T11:50:22.647Z,2.73
2018-11-05T11:52:51.621Z,2.77
2018-11-05T11:55:21.031Z,2.47
2018-11-05T11:57:49.525Z,2.40
2018-11-05T12:00:19.991Z,2.07
2018-11-05T12:02:49.072Z,2.60
2018-11-05T12:05:18.022Z,2.47
2018-11-05T12:07:46.348Z,2.60
2018-11-05T12:10:20.446Z,2.53
2018-11-05T12:12:48.974Z,2.40
2018-11-05T12:15:18.764Z,2.30
2018-11-05T12:17:48.677Z,2.53
2018-11-05T12:20:18.567Z,2.43
2018-11-05T12:22:47.571Z,2.37
2018-11-05T12:25:16.138Z,2.30
2018-11-05T12:27:44.987Z,2.17
2018-11-05T12:30:16.357Z,2.30
2018-11-05T12:32:45.748Z,2.07
2018-11-05T12:35:14.671Z,2.97
2018-11-05T12:37:44.687Z,2.47
2018-11-05T12:40:14.747Z,2.50
2018-11-05T12:42:44.501Z,2.20
2018-11-05T12:45:12.964Z,2.57
2018-11-05T12:47:41.397Z,2.50
2018-11-05T12:50:12.380Z,2.03
2018-11-05T12:52:41.287Z,2.23
2018-11-05T12:55:10.487Z,2.50
2018-11-05T12:57:38.960Z,2.67
2018-11-05T13:00:11.543Z,2.30
2018-11-05T13:02:40.077Z,2.80
2018-11-05T13:05:09.846Z,1.77
2018-11-05T13:07:38.563Z,2.50
2018-11-05T13:10:09.552Z,2.47
2018-11-05T13:12:38.058Z,2.60
2018-11-05T13:15:07.302Z,1.97
2018-11-05T13:17:36.403Z,2.70
2018-11-05T13:20:06.074Z,1.87
2018-11-05T13:22:34.558Z,2.30
2018-11-05T13:25:03.190Z,2.50
2018-11-05T13:27:31.838Z,2.57
2018-11-05T13:30:00.231Z,2.33
2018-11-05T13:32:29.268Z,2.27
2018-11-05T13:34:57.737Z,2.17
2018-11-05T13:37:26.438Z,2.00
2018-11-05T13:39:54.749Z,2.17
2018-11-05T13:42:23.279Z,2.13
2018-11-05T13:44:51.878Z,2.37
2018-11-05T13:47:20.861Z,2.20
2018-11-05T13:49:49.231Z,2.27
2018-11-05T13:52:18.213Z,1.83
2018-11-05T13:54:46.977Z,2.07
2018-11-05T13:57:15.084Z,1.50
2018-11-05T13:59:43.892Z,2.57
2018-11-05T14:02:12.442Z,1.83
2018-11-05T14:04:40.943Z,2.10
2018-11-05T14:07:09.838Z,1.90
2018-11-05T14:09:38.509Z,2.63
2018-11-05T14:12:07.035Z,2.50
2018-11-05T14:14:35.942Z,1.77
2018-11-05T14:17:05.839Z,2.10
2018-11-05T14:19:34.280Z,2.27
2018-11-05T14:22:02.913Z,1.57
2018-11-05T14:24:31.637Z,1.70
2018-11-05T14:27:00.054Z,1.70
2018-11-05T14:29:28.917Z,1.93
2018-11-05T14:31:57.278Z,2.10
2018-11-05T14:34:25.772Z,2.00
2018-11-05T14:36:54.427Z,1.60
2018-11-05T14:39:22.768Z,2.43
2018-11-05T14:41:51.563Z,2.03
2018-11-05T14:44:20.000Z,2.10
2018-11-05T14:46:48.542Z,2.10
2018-11-05T14:49:16.975Z,2.17
2018-11-05T14:51:45.406Z,2.80
2018-11-05T14:54:14.172Z,2.00
2018-11-05T14:56:42.636Z,2.13
2018-11-05T14:59:11.036Z,2.57
2018-11-05T15:01:39.535Z,2.70
2018-11-05T15:04:07.970Z,3.37
2018-11-05T15:06:36.838Z,3.47
2018-11-05T15:09:08.179Z,3.90
2018-11-05T15:11:36.629Z,4.27
2018-11-05T15:14:05.297Z,3.60
2018-11-05T15:16:34.016Z,2.63
2018-11-05T15:19:02.915Z,2.90
2018-11-05T15:21:31.067Z,3.57
2018-11-05T15:23:59.949Z,3.70
2018-11-05T15:26:28.385Z,3.67
2018-11-05T15:28:56.789Z,3.40
2018-11-05T15:31:25.372Z,4.07
2018-11-05T15:33:54.170Z,4.37
2018-11-05T15:36:22.595Z,4.13
2018-11-05T15:38:51.236Z,2.63
2018-11-05T15:41:19.921Z,2.90
2018-11-05T15:43:48.470Z,2.40
2018-11-05T15:46:16.985Z,2.57
2018-11-05T15:48:45.394Z,3.50
2018-11-05T15:51:14.055Z,5.90
2018-11-05T15:53:42.582Z,3.60
2018-11-05T15:56:10.948Z,2.43
2018-11-05T15:58:39.375Z,9.17
2018-11-05T16:01:07.930Z,37.13
2018-11-05T16:03:36.420Z,7.30
2018-11-05T16:06:04.862Z,6.47
2018-11-05T16:08:33.790Z,5.90
2018-11-05T16:11:02.334Z,3.20
2018-11-05T16:13:30.777Z,2.60
2018-11-05T16:15:59.663Z,1.97
2018-11-05T16:18:28.439Z,1.57
2018-11-05T16:20:57.229Z,4.70
2018-11-05T16:23:25.993Z,3.73
2018-11-05T16:25:54.994Z,2.60
2018-11-05T16:28:23.285Z,1.73
2018-11-05T16:30:52.715Z,1.40
2018-11-05T16:33:21.365Z,1.90
2018-11-05T16:35:49.807Z,3.57
2018-11-05T16:38:18.881Z,3.10
2018-11-05T16:40:47.292Z,2.13
2018-11-05T16:43:15.716Z,1.60
2018-11-05T16:45:44.604Z,1.47
2018-11-05T16:48:12.942Z,1.87
2018-11-05T16:50:41.409Z,1.63
2018-11-05T16:53:10.746Z,3.07
2018-11-05T16:55:39.199Z,3.50
2018-11-05T16:58:08.155Z,9.73
2018-11-05T17:00:36.633Z,6.47
2018-11-05T17:03:06.203Z,8.20
2018-11-05T17:05:34.604Z,5.50
2018-11-05T17:08:03.179Z,3.53
2018-11-05T17:10:31.999Z,3.83
2018-11-05T17:13:00.414Z,4.80
2018-11-05T17:15:28.864Z,6.20
2018-11-05T17:17:57.358Z,4.13
2018-11-05T17:20:25.801Z,2.17
2018-11-05T17:22:54.393Z,1.23
2018-11-05T17:25:22.861Z,3.53
2018-11-05T17:27:52.633Z,2.53
2018-11-05T17:30:22.514Z,2.30
2018-11-05T17:32:51.185Z,2.60
2018-11-05T17:35:20.264Z,1.90
2018-11-05T17:37:49.314Z,1.47
2018-11-05T17:40:19.114Z,2.40
2018-11-05T17:42:47.609Z,5.80
2018-11-05T17:45:17.383Z,7.50
2018-11-05T17:47:46.581Z,5.77
2018-11-05T17:50:16.263Z,3.20
2018-11-05T17:52:44.962Z,2.47
2018-11-05T17:55:13.893Z,1.57
2018-11-05T17:57:43.498Z,1.60
2018-11-05T18:00:14.513Z,2.90
2018-11-05T18:02:43.141Z,2.27
2018-11-05T18:05:11.765Z,1.97
2018-11-05T18:07:40.403Z,1.40
2018-11-05T18:10:09.427Z,1.90
2018-11-05T18:12:38.065Z,1.87
2018-11-05T18:15:09.160Z,2.40
2018-11-05T18:17:37.938Z,2.93
2018-11-05T18:20:08.041Z,3.07
2018-11-05T18:22:36.544Z,3.30
2018-11-05T18:25:06.243Z,3.20
2018-11-05T18:27:35.771Z,2.60
2018-11-05T18:30:05.235Z,2.60
2018-11-05T18:32:34.802Z,2.10
2018-11-05T18:35:03.391Z,2.37
2018-11-05T18:37:32.150Z,2.30
2018-11-05T18:40:00.632Z,2.50
2018-11-05T18:42:29.345Z,2.70
2018-11-05T18:44:57.966Z,3.77
2018-11-05T18:47:26.644Z,4.83
2018-11-05T18:49:55.383Z,5.73
2018-11-05T18:52:24.024Z,5.30
2018-11-05T18:54:53.166Z,4.40
2018-11-05T18:57:21.640Z,3.83
2018-11-05T18:59:50.127Z,3.30
2018-11-05T19:02:23.996Z,4.33
2018-11-05T19:04:52.446Z,4.30
2018-11-05T19:07:20.943Z,3.83
2018-11-05T19:09:49.391Z,1.77
2018-11-05T19:12:18.061Z,1.60
2018-11-05T19:14:47.468Z,3.70
2018-11-05T19:17:17.754Z,3.13
2018-11-05T19:19:47.904Z,2.33
2018-11-05T19:22:16.639Z,17.83
2018-11-05T19:24:46.309Z,9.70
2018-11-05T19:27:15.554Z,6.60
2018-11-05T19:29:45.391Z,3.77
2018-11-05T19:32:15.433Z,3.23
2018-11-05T19:34:44.451Z,2.67
2018-11-05T19:37:13.384Z,2.17
2018-11-05T19:39:42.755Z,1.53
2018-11-05T19:42:11.656Z,1.80
2018-11-05T19:44:40.343Z,1.60
2018-11-05T19:47:09.141Z,1.37
2018-11-05T19:49:39.218Z,1.67
2018-11-05T19:52:07.613Z,4.10
2018-11-05T19:54:36.050Z,2.73
2018-11-05T19:57:04.866Z,1.80
2018-11-05T19:59:33.894Z,1.47
2018-11-05T20:02:03.821Z,1.80
2018-11-05T20:04:32.352Z,1.47
2018-11-05T20:07:00.789Z,1.90
2018-11-05T20:09:29.284Z,2.00
2018-11-05T20:11:58.290Z,1.60
2018-11-05T20:14:27.266Z,2.23
2018-11-05T20:16:55.885Z,2.20
2018-11-05T20:19:24.993Z,2.20
2018-11-05T20:21:53.427Z,3.27
2018-11-05T20:24:22.010Z,2.53
2018-11-05T20:26:51.363Z,1.90
2018-11-05T20:29:20.404Z,3.13
2018-11-05T20:31:50.339Z,2.30
2018-11-05T20:34:19.843Z,3.63
2018-11-05T20:36:49.567Z,3.13
2018-11-05T20:39:18.524Z,2.60
2018-11-05T20:41:48.353Z,2.10
2018-11-05T20:44:17.150Z,1.60
2018-11-05T20:46:45.781Z,0.90
2018-11-05T20:49:14.263Z,1.20
2018-11-05T20:51:43.989Z,0.70
2018-11-05T20:54:12.663Z,0.97
2018-11-05T20:56:41.094Z,0.73
2018-11-05T20:59:09.587Z,1.03
2018-11-05T21:01:38.069Z,0.90
2018-11-05T21:04:06.777Z,1.20
2018-11-05T21:06:35.257Z,1.50
2018-11-05T21:09:04.091Z,1.33
2018-11-05T21:11:32.910Z,1.20
2018-11-05T21:14:01.342Z,0.93
2018-11-05T21:16:31.462Z,0.80
2018-11-05T21:19:00.776Z,1.00
2018-11-05T21:21:29.484Z,0.90
2018-11-05T21:23:58.170Z,1.07
2018-11-05T21:26:26.761Z,0.80
2018-11-05T21:28:55.378Z,0.83
2018-11-05T21:31:23.814Z,1.30
2018-11-05T21:33:52.285Z,1.00
2018-11-05T21:36:21.023Z,1.07
2018-11-05T21:38:49.457Z,1.10
2018-11-05T21:41:18.079Z,0.87
2018-11-05T21:43:46.861Z,1.20
2018-11-05T21:46:15.288Z,0.93
2018-11-05T21:48:43.989Z,0.70
2018-11-05T21:51:12.402Z,1.00
2018-11-05T21:53:40.987Z,0.83
2018-11-05T21:56:09.492Z,0.83
2018-11-05T21:58:37.972Z,0.70
2018-11-05T22:01:06.512Z,0.80
2018-11-05T22:03:35.299Z,0.90
2018-11-05T22:06:04.037Z,0.60
2018-11-05T22:08:32.449Z,1.30
2018-11-05T22:11:01.429Z,1.40
2018-11-05T22:13:29.980Z,0.70
2018-11-05T22:15:58.467Z,0.80
2018-11-05T22:18:27.183Z,0.80
2018-11-05T22:20:55.706Z,0.67
2018-11-05T22:23:24.211Z,0.80
2018-11-05T22:25:52.874Z,1.10
2018-11-05T22:28:21.267Z,0.90
2018-11-05T22:30:49.739Z,1.00
2018-11-05T22:33:18.333Z,0.97
2018-11-05T22:35:46.784Z,0.70
2018-11-05T22:38:15.685Z,0.80
2018-11-05T22:40:44.077Z,1.57
2018-11-05T22:43:12.551Z,0.87
2018-11-05T22:45:40.969Z,0.90
2018-11-05T22:48:09.554Z,0.83
2018-11-05T22:50:38.437Z,0.70
2018-11-05T22:53:06.876Z,0.77
2018-11-05T22:55:35.534Z,0.73
2018-11-05T22:58:04.082Z,0.70
2018-11-05T23:00:38.052Z,0.57
2018-11-05T23:03:11.884Z,0.80
2018-11-05T23:05:40.533Z,1.20
2018-11-05T23:08:09.005Z,0.90
2018-11-05T23:10:37.459Z,0.80
2018-11-05T23:13:06.419Z,0.60
2018-11-05T23:15:34.903Z,0.80
2018-11-05T23:18:03.612Z,0.60
2018-11-05T23:20:32.605Z,0.80
2018-11-05T23:23:01.100Z,0.60
2018-11-05T23:25:29.481Z,1.00
2018-11-05T23:27:58.011Z,0.70
2018-11-05T23:30:26.489Z,0.60
2018-11-05T23:32:55.011Z,0.50
2018-11-05T23:35:23.677Z,0.60
2018-11-05T23:37:52.083Z,0.50
2018-11-05T23:40:21.102Z,0.60
2018-11-05T23:42:49.724Z,0.50
2018-11-05T23:45:18.370Z,1.07
2018-11-05T23:47:46.776Z,0.60
2018-11-05T23:50:15.513Z,0.70
2018-11-05T23:52:44.060Z,0.63
2018-11-05T23:55:13.268Z,0.67
2018-11-05T23:57:41.922Z,0.70
